createdAt,value
2024-03-11T00:02:02.353Z,75.67
2024-03-11T00:04:30.004Z,76.11
2024-03-11T00:06:58.799Z,75.58
2024-03-11T00:09:34.136Z,75.81
2024-03-11T00:12:01.681Z,75.91
2024-03-11T00:14:31.838Z,75.63
2024-03-11T00:16:59.076Z,75.29
2024-03-11T00:19:27.150Z,75.72
2024-03-11T00:21:58.260Z,75.20
2024-03-11T00:24:25.490Z,75.11
2024-03-11T00:26:53.283Z,75.20
2024-03-11T00:29:20.678Z,75.23
2024-03-11T00:31:47.350Z,75.98
2024-03-11T00:34:18.234Z,76.26
2024-03-11T00:36:49.276Z,76.74
2024-03-11T00:39:19.006Z,77.30
2024-03-11T00:41:45.468Z,78.09
2024-03-11T00:44:12.072Z,78.14
2024-03-11T00:46:39.657Z,78.00
2024-03-11T00:49:09.624Z,77.99
2024-03-11T00:51:36.435Z,78.00
2024-03-11T00:54:03.059Z,78.16
2024-03-11T00:56:29.599Z,78.20
2024-03-11T00:58:56.183Z,77.58
2024-03-11T01:01:22.732Z,77.13
2024-03-11T01:03:49.309Z,78.39
2024-03-11T01:06:16.931Z,77.71
2024-03-11T01:08:43.582Z,78.75
2024-03-11T01:11:11.995Z,77.93
2024-03-11T01:13:38.658Z,78.21
2024-03-11T01:16:06.778Z,79.88
2024-03-11T01:18:33.329Z,79.45
2024-03-11T01:21:01.237Z,79.12
2024-03-11T01:23:29.870Z,78.74
2024-03-11T01:25:56.455Z,79.55
2024-03-11T01:28:22.989Z,79.29
2024-03-11T01:30:49.914Z,79.08
2024-03-11T01:33:16.744Z,78.73
2024-03-11T01:35:44.481Z,78.73
2024-03-11T01:38:11.559Z,78.66
2024-03-11T01:40:38.256Z,78.49
2024-03-11T01:43:05.167Z,79.13
2024-03-11T01:45:34.111Z,79.14
2024-03-11T01:48:01.704Z,79.30
2024-03-11T01:50:29.804Z,79.03
2024-03-11T01:52:58.211Z,79.54
2024-03-11T01:55:28.979Z,78.77
2024-03-11T01:57:58.137Z,79.56
2024-03-11T02:00:25.021Z,78.84
2024-03-11T02:02:56.117Z,78.96
2024-03-11T02:05:25.913Z,79.14
2024-03-11T02:07:57.995Z,79.24
2024-03-11T02:10:25.914Z,78.61
2024-03-11T02:12:52.717Z,78.67
2024-03-11T02:15:19.544Z,78.82
2024-03-11T02:17:47.659Z,80.31
2024-03-11T02:20:19.644Z,79.73
2024-03-11T02:22:54.417Z,78.81
2024-03-11T02:25:29.494Z,79.76
2024-03-11T02:27:58.438Z,79.48
2024-03-11T02:30:25.492Z,77.86
2024-03-11T02:32:52.135Z,77.44
2024-03-11T02:35:18.887Z,77.95
2024-03-11T02:37:47.882Z,78.48
2024-03-11T02:40:18.321Z,79.39
2024-03-11T02:42:45.521Z,79.35
2024-03-11T02:45:16.942Z,79.95
2024-03-11T02:47:44.380Z,80.31
2024-03-11T02:50:11.691Z,80.14
2024-03-11T02:52:38.688Z,79.22
2024-03-11T02:55:07.012Z,79.87
2024-03-11T02:57:34.648Z,80.00
2024-03-11T03:00:01.995Z,80.62
2024-03-11T03:02:29.041Z,79.77
2024-03-11T03:04:57.301Z,79.04
2024-03-11T03:07:27.705Z,81.11
2024-03-11T03:09:54.752Z,80.32
2024-03-11T03:12:21.837Z,79.33
2024-03-11T03:14:48.792Z,79.56
2024-03-11T03:17:15.608Z,80.39
2024-03-11T03:19:42.172Z,80.01
2024-03-11T03:22:09.053Z,79.37
2024-03-11T03:24:35.672Z,79.21
2024-03-11T03:27:02.222Z,79.65
2024-03-11T03:29:28.815Z,79.45
2024-03-11T03:31:55.426Z,79.73
2024-03-11T03:34:21.955Z,79.43
2024-03-11T03:36:48.516Z,78.30
2024-03-11T03:39:15.115Z,79.13
2024-03-11T03:41:41.684Z,78.22
2024-03-11T03:44:08.320Z,78.27
2024-03-11T03:46:34.995Z,77.78
2024-03-11T03:49:02.527Z,77.77
2024-03-11T03:51:29.317Z,78.05
2024-03-11T03:53:58.206Z,76.90
2024-03-11T03:56:26.833Z,76.38
2024-03-11T03:58:54.330Z,76.44
2024-03-11T04:01:21.167Z,76.40
2024-03-11T04:03:47.750Z,75.53
2024-03-11T04:06:15.035Z,76.05
2024-03-11T04:08:42.052Z,76.12
2024-03-11T04:11:08.764Z,76.91
2024-03-11T04:13:36.906Z,77.25
2024-03-11T04:16:05.885Z,76.51
2024-03-11T04:18:32.552Z,76.17
2024-03-11T04:20:59.155Z,75.78
2024-03-11T04:23:27.523Z,75.52
2024-03-11T04:25:54.220Z,74.67
2024-03-11T04:28:20.823Z,75.33
2024-03-11T04:30:47.395Z,74.51
2024-03-11T04:33:18.188Z,74.28
2024-03-11T04:35:45.554Z,74.25
2024-03-11T04:38:13.694Z,74.19
2024-03-11T04:40:42.643Z,74.22
2024-03-11T04:43:09.530Z,74.10
2024-03-11T04:45:38.511Z,73.68
2024-03-11T04:48:11.340Z,73.49
2024-03-11T04:50:42.963Z,73.27
2024-03-11T04:53:10.828Z,73.85
2024-03-11T04:55:40.486Z,73.48
2024-03-11T04:58:07.073Z,72.81
2024-03-11T05:00:34.087Z,73.11
2024-03-11T05:03:02.600Z,73.54
2024-03-11T05:05:37.289Z,73.24
2024-03-11T05:08:05.307Z,73.55
2024-03-11T05:10:32.295Z,73.29
2024-03-11T05:12:59.559Z,73.44
2024-03-11T05:15:29.549Z,74.03
2024-03-11T05:17:56.874Z,74.37
2024-03-11T05:20:23.726Z,74.67
2024-03-11T05:22:50.993Z,74.06
2024-03-11T05:25:20.722Z,74.05
2024-03-11T05:27:48.529Z,73.35
2024-03-11T05:30:17.047Z,73.52
2024-03-11T05:32:44.154Z,73.46
2024-03-11T05:35:11.360Z,72.89
2024-03-11T05:37:37.954Z,72.71
2024-03-11T05:40:07.474Z,72.48
2024-03-11T05:42:35.240Z,72.99
2024-03-11T05:45:02.610Z,72.64
2024-03-11T05:47:29.256Z,71.85
2024-03-11T05:49:56.195Z,72.30
2024-03-11T05:52:26.183Z,72.23
2024-03-11T05:54:53.891Z,72.36
2024-03-11T05:57:26.333Z,72.39
2024-03-11T05:59:53.937Z,72.34
2024-03-11T06:02:21.722Z,72.52
2024-03-11T06:04:48.750Z,71.91
2024-03-11T06:07:25.129Z,72.75
2024-03-11T06:09:52.675Z,72.43
2024-03-11T06:12:22.924Z,72.18
2024-03-11T06:14:50.790Z,72.23
2024-03-11T06:17:18.095Z,72.09
2024-03-11T06:19:45.847Z,71.66
2024-03-11T06:22:13.257Z,71.72
2024-03-11T06:24:40.174Z,70.89
2024-03-11T06:27:07.326Z,70.62
2024-03-11T06:29:34.274Z,70.77
2024-03-11T06:32:00.888Z,70.21
2024-03-11T06:34:28.784Z,69.00
2024-03-11T06:36:56.340Z,69.35
2024-03-11T06:39:22.996Z,69.09
2024-03-11T06:41:49.788Z,68.67
2024-03-11T06:44:21.288Z,67.65
2024-03-11T06:46:58.465Z,65.94
2024-03-11T06:49:26.655Z,67.27
2024-03-11T06:51:53.158Z,66.52
2024-03-11T06:54:19.732Z,66.31
2024-03-11T06:56:46.248Z,67.12
2024-03-11T06:59:12.928Z,65.86
2024-03-11T07:01:40.242Z,66.17
2024-03-11T07:04:06.965Z,65.40
2024-03-11T07:06:33.893Z,65.22
2024-03-11T07:09:02.509Z,64.88
2024-03-11T07:11:29.101Z,64.33
2024-03-11T07:13:55.710Z,61.87
2024-03-11T07:16:23.937Z,61.41
2024-03-11T07:18:54.512Z,60.34
2024-03-11T07:21:21.180Z,59.26
2024-03-11T07:23:49.451Z,58.63
2024-03-11T07:26:16.097Z,56.08
2024-03-11T07:28:42.683Z,52.53
2024-03-11T07:31:10.485Z,52.58
2024-03-11T07:33:37.580Z,54.72
2024-03-11T07:36:04.548Z,56.79
2024-03-11T07:38:31.195Z,57.91
2024-03-11T07:40:57.773Z,58.27
2024-03-11T07:43:24.355Z,57.49
2024-03-11T07:45:50.942Z,59.08
2024-03-11T07:48:17.697Z,55.60
2024-03-11T07:50:44.361Z,54.68
2024-03-11T07:53:13.477Z,54.49
2024-03-11T07:55:41.231Z,52.97
2024-03-11T07:58:08.284Z,53.58
2024-03-11T08:00:37.712Z,55.12
2024-03-11T08:03:05.225Z,55.46
2024-03-11T08:05:32.195Z,54.67
2024-03-11T08:07:59.649Z,55.40
2024-03-11T08:10:29.752Z,56.68
2024-03-11T08:12:56.781Z,57.05
2024-03-11T08:15:23.606Z,56.26
2024-03-11T08:17:52.145Z,55.71
2024-03-11T08:20:21.756Z,53.00
2024-03-11T08:22:53.802Z,53.05
2024-03-11T08:25:28.738Z,52.86
2024-03-11T08:27:56.045Z,49.97
2024-03-11T08:30:25.230Z,48.88
2024-03-11T08:32:51.880Z,49.21
2024-03-11T08:35:22.705Z,48.06
2024-03-11T08:37:51.025Z,50.03
2024-03-11T08:40:20.834Z,45.85
2024-03-11T08:42:54.005Z,46.57
2024-03-11T08:45:24.256Z,46.28
2024-03-11T08:47:52.504Z,47.37
2024-03-11T08:50:23.353Z,46.07
2024-03-11T08:52:50.807Z,43.66
2024-03-11T08:55:18.317Z,43.00
2024-03-11T08:57:50.750Z,41.06
2024-03-11T09:00:18.394Z,43.60
2024-03-11T09:02:48.478Z,40.53
2024-03-11T09:05:19.391Z,39.74
2024-03-11T09:07:47.527Z,44.31
2024-03-11T09:10:17.654Z,41.73
2024-03-11T09:12:46.006Z,40.88
2024-03-11T09:15:20.536Z,39.07
2024-03-11T09:17:51.209Z,38.94
2024-03-11T09:20:21.508Z,40.68
2024-03-11T09:22:49.433Z,39.92
2024-03-11T09:25:25.449Z,38.80
2024-03-11T09:27:55.028Z,36.94
2024-03-11T09:30:21.888Z,37.32
2024-03-11T09:32:50.838Z,36.27
2024-03-11T09:35:18.409Z,35.28
2024-03-11T09:37:52.625Z,39.51
2024-03-11T09:40:29.120Z,35.09
2024-03-11T09:42:57.498Z,31.76
2024-03-11T09:45:29.592Z,30.69
2024-03-11T09:47:58.151Z,29.14
2024-03-11T09:50:34.752Z,26.98
2024-03-11T09:53:13.937Z,28.30
2024-03-11T09:55:44.946Z,30.46
2024-03-11T09:58:14.381Z,33.39
2024-03-11T10:00:53.872Z,28.13
2024-03-11T10:03:23.473Z,27.34
2024-03-11T10:06:02.288Z,31.22
2024-03-11T10:08:32.470Z,30.04
2024-03-11T10:11:22.523Z,30.36
2024-03-11T10:13:53.647Z,28.61
2024-03-11T10:16:28.985Z,28.32
2024-03-11T10:19:04.550Z,29.93
2024-03-11T10:21:35.744Z,31.88
2024-03-11T10:24:03.150Z,30.21
2024-03-11T10:26:43.500Z,33.00
2024-03-11T10:29:12.840Z,38.30
2024-03-11T10:31:42.703Z,38.20
2024-03-11T10:34:21.776Z,37.35
2024-03-11T10:36:56.751Z,34.12
2024-03-11T10:39:23.434Z,28.14
2024-03-11T10:41:51.894Z,27.67
2024-03-11T10:44:30.571Z,24.64
2024-03-11T10:47:15.466Z,22.99
2024-03-11T10:49:46.851Z,22.90
2024-03-11T10:52:17.043Z,22.18
2024-03-11T10:54:58.219Z,22.75
2024-03-11T10:57:40.360Z,24.23
2024-03-11T11:00:18.069Z,23.55
2024-03-11T11:02:50.867Z,23.77
2024-03-11T11:05:25.239Z,20.93
2024-03-11T11:07:57.101Z,24.39
2024-03-11T11:10:30.912Z,24.15
2024-03-11T11:12:57.902Z,26.02
2024-03-11T11:15:25.279Z,28.37
2024-03-11T11:17:55.735Z,27.49
2024-03-11T11:20:39.079Z,30.49
2024-03-11T11:23:06.322Z,32.70
2024-03-11T11:25:40.772Z,25.90
2024-03-11T11:28:08.508Z,30.54
2024-03-11T11:30:37.804Z,25.37
2024-03-11T11:33:05.224Z,24.89
2024-03-11T11:35:37.195Z,27.19
2024-03-11T11:38:39.525Z,22.56
2024-03-11T11:41:38.508Z,28.04
2024-03-11T11:44:05.226Z,26.16
2024-03-11T11:46:44.777Z,21.07
2024-03-11T11:49:22.565Z,24.58
2024-03-11T11:51:52.772Z,24.41
2024-03-11T11:54:34.527Z,21.15
2024-03-11T11:57:03.437Z,21.25
2024-03-11T11:59:30.677Z,22.03
2024-03-11T12:02:01.306Z,22.64
2024-03-11T12:04:30.706Z,20.06
2024-03-11T12:06:58.174Z,21.73
2024-03-11T12:09:25.265Z,20.47
2024-03-11T12:11:58.354Z,21.74
2024-03-11T12:14:24.951Z,20.08
2024-03-11T12:17:03.692Z,21.25
2024-03-11T12:19:31.512Z,24.98
2024-03-11T12:21:59.647Z,28.87
2024-03-11T12:24:27.244Z,30.11
2024-03-11T12:26:57.184Z,22.73
2024-03-11T12:29:24.181Z,20.64
2024-03-11T12:31:57.240Z,20.62
2024-03-11T12:34:25.622Z,19.59
2024-03-11T12:36:53.672Z,21.19
2024-03-11T12:39:43.927Z,20.84
2024-03-11T12:42:10.687Z,19.64
2024-03-11T12:44:38.029Z,19.69
2024-03-11T12:47:06.230Z,25.34
2024-03-11T12:49:33.231Z,30.79
2024-03-11T12:52:05.207Z,22.33
2024-03-11T12:54:32.162Z,19.86
2024-03-11T12:57:18.134Z,18.54
2024-03-11T12:59:58.845Z,20.61
2024-03-11T13:02:25.482Z,21.41
2024-03-11T13:04:54.528Z,20.03
2024-03-11T13:07:24.463Z,17.85
2024-03-11T13:09:58.155Z,18.58
2024-03-11T13:12:30.253Z,20.49
2024-03-11T13:14:57.480Z,17.01
2024-03-11T13:17:24.266Z,19.21
2024-03-11T13:19:57.374Z,19.06
2024-03-11T13:22:23.987Z,19.94
2024-03-11T13:24:57.502Z,20.54
2024-03-11T13:27:26.266Z,18.55
2024-03-11T13:29:52.830Z,17.79
2024-03-11T13:32:21.582Z,18.39
2024-03-11T13:34:49.955Z,18.34
2024-03-11T13:37:17.255Z,18.03
2024-03-11T13:39:45.338Z,18.73
2024-03-11T13:42:13.823Z,22.81
2024-03-11T13:44:42.139Z,22.44
2024-03-11T13:47:10.298Z,21.96
2024-03-11T13:49:41.267Z,19.49
2024-03-11T13:52:10.285Z,20.76
2024-03-11T13:54:39.202Z,23.81
2024-03-11T13:57:08.335Z,19.89
2024-03-11T13:59:35.267Z,20.14
2024-03-11T14:02:01.954Z,19.54
2024-03-11T14:04:29.228Z,18.94
2024-03-11T14:06:55.884Z,18.60
2024-03-11T14:09:24.768Z,20.27
2024-03-11T14:11:53.433Z,22.80
2024-03-11T14:14:20.094Z,22.24
2024-03-11T14:16:48.444Z,20.96
2024-03-11T14:19:17.543Z,20.91
2024-03-11T14:21:45.272Z,20.57
2024-03-11T14:24:14.958Z,21.83
2024-03-11T14:26:43.980Z,20.62
2024-03-11T14:29:16.995Z,20.79
2024-03-11T14:31:47.900Z,20.73
2024-03-11T14:34:15.646Z,20.86
2024-03-11T14:36:44.982Z,21.95
2024-03-11T14:39:21.182Z,22.79
2024-03-11T14:41:48.871Z,23.32
2024-03-11T14:44:16.204Z,22.29
2024-03-11T14:46:52.888Z,21.39
2024-03-11T14:49:25.655Z,22.06
2024-03-11T14:51:55.022Z,24.10
2024-03-11T14:54:30.920Z,24.08
2024-03-11T14:56:57.968Z,24.12
2024-03-11T14:59:28.371Z,24.36
2024-03-11T15:01:55.580Z,22.94
2024-03-11T15:04:26.384Z,23.47
2024-03-11T15:06:53.511Z,24.23
2024-03-11T15:09:20.598Z,24.04
2024-03-11T15:11:48.914Z,24.75
2024-03-11T15:14:21.459Z,27.54
2024-03-11T15:16:49.979Z,28.05
2024-03-11T15:19:16.646Z,29.45
2024-03-11T15:21:44.919Z,28.49
2024-03-11T15:24:11.849Z,28.70
2024-03-11T15:26:38.488Z,31.08
2024-03-11T15:29:09.212Z,30.33
2024-03-11T15:31:36.385Z,31.01
2024-03-11T15:34:04.575Z,31.51
2024-03-11T15:36:34.217Z,33.13
2024-03-11T15:39:00.882Z,34.00
2024-03-11T15:41:27.792Z,36.06
2024-03-11T15:43:56.588Z,37.28
2024-03-11T15:46:24.438Z,37.85
2024-03-11T15:48:53.116Z,38.54
2024-03-11T15:51:21.705Z,38.48
2024-03-11T15:53:51.505Z,39.54
2024-03-11T15:56:20.178Z,39.78
2024-03-11T15:58:47.423Z,40.15
2024-03-11T16:01:23.417Z,40.47
2024-03-11T16:03:52.342Z,40.64
2024-03-11T16:06:19.339Z,41.36
2024-03-11T16:08:47.323Z,41.43
2024-03-11T16:11:14.591Z,42.10
2024-03-11T16:13:41.620Z,41.76
2024-03-11T16:16:09.600Z,42.24
2024-03-11T16:18:37.195Z,42.15
2024-03-11T16:21:03.938Z,43.07
2024-03-11T16:23:32.048Z,43.27
2024-03-11T16:26:02.669Z,43.58
2024-03-11T16:28:30.425Z,43.89
2024-03-11T16:30:57.174Z,44.08
2024-03-11T16:33:25.820Z,44.01
2024-03-11T16:35:52.361Z,44.66
2024-03-11T16:38:19.573Z,44.62
2024-03-11T16:40:47.070Z,44.88
2024-03-11T16:43:17.317Z,44.76
2024-03-11T16:45:44.608Z,45.35
2024-03-11T16:48:12.753Z,45.93
2024-03-11T16:50:46.432Z,45.35
2024-03-11T16:53:13.726Z,45.76
2024-03-11T16:55:42.467Z,45.79
2024-03-11T16:58:12.597Z,46.01
2024-03-11T17:00:43.913Z,46.54
2024-03-11T17:03:10.908Z,46.70
2024-03-11T17:05:39.717Z,46.86
2024-03-11T17:08:09.636Z,47.58
2024-03-11T17:10:37.059Z,47.15
2024-03-11T17:13:08.165Z,47.24
2024-03-11T17:15:36.562Z,47.29
2024-03-11T17:18:04.403Z,46.98
2024-03-11T17:20:43.302Z,47.54
2024-03-11T17:23:14.263Z,47.52
2024-03-11T17:25:40.865Z,47.81
2024-03-11T17:28:11.972Z,48.40
2024-03-11T17:30:42.174Z,48.25
2024-03-11T17:33:10.178Z,48.34
2024-03-11T17:35:41.495Z,48.89
2024-03-11T17:38:10.162Z,49.45
2024-03-11T17:40:38.269Z,49.38
2024-03-11T17:43:11.060Z,49.40
2024-03-11T17:45:40.568Z,49.37
2024-03-11T17:48:09.082Z,50.09
2024-03-11T17:50:36.729Z,51.38
2024-03-11T17:53:03.431Z,51.15
2024-03-11T17:55:38.015Z,51.26
2024-03-11T17:58:05.906Z,51.99
2024-03-11T18:00:34.356Z,51.71
2024-03-11T18:03:08.378Z,52.35
2024-03-11T18:05:36.465Z,52.97
2024-03-11T18:08:10.598Z,53.06
2024-03-11T18:10:41.871Z,53.18
2024-03-11T18:13:12.921Z,53.43
2024-03-11T18:15:41.653Z,54.00
2024-03-11T18:18:11.229Z,54.06
2024-03-11T18:20:41.381Z,54.76
2024-03-11T18:23:13.453Z,53.65
2024-03-11T18:25:40.500Z,53.19
2024-03-11T18:28:09.170Z,53.56
2024-03-11T18:30:39.198Z,53.25
2024-03-11T18:33:08.026Z,53.26
2024-03-11T18:35:36.500Z,53.89
2024-03-11T18:38:07.583Z,54.67
2024-03-11T18:40:35.024Z,54.91
2024-03-11T18:43:02.286Z,54.99
2024-03-11T18:45:30.743Z,55.28
2024-03-11T18:47:57.553Z,55.71
2024-03-11T18:50:25.519Z,56.35
2024-03-11T18:52:59.758Z,56.66
2024-03-11T18:55:31.067Z,56.00
2024-03-11T18:57:59.089Z,55.95
2024-03-11T19:00:30.638Z,55.63
2024-03-11T19:02:58.114Z,56.38
2024-03-11T19:05:25.789Z,56.34
2024-03-11T19:07:52.420Z,56.34
2024-03-11T19:10:19.057Z,57.20
2024-03-11T19:12:48.530Z,56.69
2024-03-11T19:15:16.162Z,57.19
2024-03-11T19:17:46.864Z,57.08
2024-03-11T19:20:16.723Z,56.51
2024-03-11T19:22:46.580Z,56.79
2024-03-11T19:25:19.389Z,57.24
2024-03-11T19:27:47.017Z,58.11
2024-03-11T19:30:16.325Z,58.36
2024-03-11T19:32:43.495Z,58.66
2024-03-11T19:35:15.527Z,59.02
2024-03-11T19:38:35.822Z,58.48
2024-03-11T19:41:23.813Z,58.55
2024-03-11T19:44:16.312Z,58.09
2024-03-11T19:47:07.985Z,58.58
2024-03-11T19:50:13.368Z,58.62
2024-03-11T19:53:18.520Z,58.36
2024-03-11T19:56:17.949Z,58.38
2024-03-11T19:59:23.312Z,58.74
2024-03-11T20:02:02.335Z,58.43
2024-03-11T20:05:17.187Z,58.68
2024-03-11T20:08:07.604Z,59.13
2024-03-11T20:10:58.917Z,59.80
2024-03-11T20:14:13.325Z,60.52
2024-03-11T20:16:53.724Z,61.39
2024-03-11T20:19:42.173Z,61.24
2024-03-11T20:22:40.041Z,60.89
2024-03-11T20:25:25.518Z,61.57
2024-03-11T20:28:07.592Z,62.46
2024-03-11T20:31:07.493Z,62.30
2024-03-11T20:33:34.866Z,61.99
2024-03-11T20:36:02.970Z,61.95
2024-03-11T20:38:29.879Z,62.23
2024-03-11T20:40:56.811Z,61.98
2024-03-11T20:43:24.204Z,61.23
2024-03-11T20:45:52.894Z,62.08
2024-03-11T20:48:20.041Z,62.60
2024-03-11T20:50:47.236Z,61.81
2024-03-11T20:53:18.234Z,61.61
2024-03-11T20:55:44.835Z,62.31
2024-03-11T20:58:12.438Z,62.18
2024-03-11T21:00:39.371Z,61.91
2024-03-11T21:03:06.625Z,62.62
2024-03-11T21:05:36.478Z,62.80
2024-03-11T21:08:03.730Z,63.30
2024-03-11T21:10:31.203Z,62.74
2024-03-11T21:12:58.459Z,63.28
2024-03-11T21:15:27.793Z,63.51
2024-03-11T21:17:55.173Z,63.84
2024-03-11T21:20:22.179Z,64.40
2024-03-11T21:22:53.912Z,64.20
2024-03-11T21:25:24.399Z,63.73
2024-03-11T21:27:55.331Z,63.55
2024-03-11T21:30:23.389Z,63.78
2024-03-11T21:32:51.279Z,64.13
2024-03-11T21:35:18.968Z,63.67
2024-03-11T21:37:46.353Z,63.77
2024-03-11T21:40:15.487Z,62.71
2024-03-11T21:42:50.538Z,62.90
2024-03-11T21:45:20.213Z,63.88
2024-03-11T21:47:46.929Z,64.14
2024-03-11T21:50:13.975Z,63.45
2024-03-11T21:52:40.798Z,63.02
2024-03-11T21:55:12.077Z,64.28
2024-03-11T21:57:40.467Z,64.33
2024-03-11T22:00:08.224Z,64.11
2024-03-11T22:02:35.675Z,64.58
2024-03-11T22:05:02.227Z,64.74
2024-03-11T22:07:33.084Z,64.54
2024-03-11T22:09:59.733Z,64.09
2024-03-11T22:12:26.477Z,64.33
2024-03-11T22:14:53.156Z,64.96
2024-03-11T22:17:19.839Z,64.86
2024-03-11T22:19:46.504Z,64.83
2024-03-11T22:22:13.219Z,65.10
2024-03-11T22:24:42.483Z,64.74
2024-03-11T22:27:09.112Z,65.09
2024-03-11T22:29:35.660Z,65.17
2024-03-11T22:32:02.246Z,65.15
2024-03-11T22:34:29.024Z,65.60
2024-03-11T22:36:55.980Z,64.98
2024-03-11T22:39:24.286Z,66.03
2024-03-11T22:41:51.435Z,65.61
2024-03-11T22:44:18.291Z,65.17
2024-03-11T22:46:45.147Z,66.08
2024-03-11T22:49:14.331Z,65.48
2024-03-11T22:51:43.947Z,65.35
2024-03-11T22:54:10.845Z,66.18
2024-03-11T22:56:38.443Z,66.30
2024-03-11T22:59:05.716Z,65.75
2024-03-11T23:01:34.857Z,65.79
2024-03-11T23:04:05.953Z,66.38
2024-03-11T23:06:33.805Z,66.69
2024-03-11T23:09:00.922Z,66.11
2024-03-11T23:11:27.818Z,66.70
2024-03-11T23:13:54.588Z,66.86
2024-03-11T23:16:22.016Z,66.54
2024-03-11T23:18:51.193Z,66.13
2024-03-11T23:21:18.546Z,66.38
2024-03-11T23:23:46.893Z,66.50
2024-03-11T23:26:14.471Z,66.51
2024-03-11T23:28:41.254Z,66.28
2024-03-11T23:31:10.382Z,66.93
2024-03-11T23:33:37.316Z,66.44
2024-03-11T23:36:04.165Z,67.83
2024-03-11T23:38:33.388Z,67.38
2024-03-11T23:41:00.273Z,68.11
2024-03-11T23:43:27.030Z,68.25
2024-03-11T23:45:55.171Z,68.10
2024-03-11T23:48:26.335Z,67.31
2024-03-11T23:50:56.619Z,67.30
2024-03-11T23:53:25.466Z,67.64
2024-03-11T23:56:01.901Z,67.91
2024-03-11T23:58:33.546Z,67.24
